createdAt,value
2022-08-07T00:00:18.526Z,0.00
2022-08-07T00:02:35.938Z,0.00
2022-08-07T00:02:41.264Z,0.00
2022-08-07T00:03:18.362Z,0.00
2022-08-07T00:04:17.353Z,0.00
2022-08-07T00:05:18.421Z,0.00
2022-08-07T00:06:17.334Z,0.00
2022-08-07T00:07:17.322Z,0.00
2022-08-07T00:08:17.314Z,0.00
2022-08-07T00:09:21.327Z,0.00
2022-08-07T00:10:26.340Z,0.00
2022-08-07T00:11:19.970Z,0.00
2022-08-07T00:12:19.391Z,0.00
2022-08-07T00:13:24.100Z,0.00
2022-08-07T00:14:18.246Z,0.00
2022-08-07T00:15:17.243Z,0.00
2022-08-07T00:16:17.389Z,0.00
2022-08-07T00:17:17.273Z,0.00
2022-08-07T00:18:18.782Z,0.00
2022-08-07T00:19:21.554Z,0.00
2022-08-07T00:20:29.537Z,0.00
2022-08-07T00:21:57.180Z,0.00
2022-08-07T00:22:24.729Z,0.00
2022-08-07T00:23:18.155Z,0.00
2022-08-07T00:24:17.144Z,0.00
2022-08-07T00:25:17.391Z,0.00
2022-08-07T00:26:49.139Z,0.00
2022-08-07T00:27:18.118Z,0.00
2022-08-07T00:28:17.158Z,0.00
2022-08-07T00:29:17.096Z,0.00
2022-08-07T00:30:26.572Z,0.00
2022-08-07T00:31:18.067Z,0.00
2022-08-07T00:32:17.063Z,0.00
2022-08-07T00:33:17.057Z,0.00
2022-08-07T00:34:17.068Z,0.00
2022-08-07T00:35:17.031Z,0.00
2022-08-07T00:36:17.070Z,0.00
2022-08-07T00:37:17.009Z,0.00
2022-08-07T00:38:16.998Z,0.00
2022-08-07T00:39:20.597Z,0.00
2022-08-07T00:40:36.370Z,0.00
2022-08-07T00:41:18.771Z,0.00
2022-08-07T00:42:17.769Z,0.00
2022-08-07T00:44:01.181Z,0.00
2022-08-07T00:44:19.309Z,0.00
2022-08-07T00:45:18.458Z,0.00
2022-08-07T00:46:17.688Z,0.00
2022-08-07T00:48:07.916Z,0.00
2022-08-07T00:48:18.807Z,0.00
2022-08-07T00:49:24.768Z,0.00
2022-08-07T00:50:43.673Z,0.00
2022-08-07T00:51:17.877Z,0.00
2022-08-07T00:52:17.600Z,0.00
2022-08-07T00:53:16.842Z,0.00
2022-08-07T00:54:19.650Z,0.00
2022-08-07T00:55:17.483Z,0.00
2022-08-07T00:56:17.855Z,0.00
2022-08-07T00:57:16.811Z,0.00
2022-08-07T00:58:16.795Z,0.00
2022-08-07T00:59:16.784Z,0.00
2022-08-07T01:00:16.775Z,0.00
2022-08-07T01:01:16.846Z,0.00
2022-08-07T01:02:28.485Z,0.00
2022-08-07T01:03:17.746Z,0.00
2022-08-07T01:04:24.696Z,0.00
2022-08-07T01:05:19.196Z,0.00
2022-08-07T01:06:16.715Z,0.00
2022-08-07T01:07:16.707Z,0.00
2022-08-07T01:08:16.727Z,0.00
2022-08-07T01:10:04.197Z,0.00
2022-08-07T01:10:18.289Z,0.00
2022-08-07T01:12:09.779Z,0.00
2022-08-07T01:12:30.208Z,0.00
2022-08-07T01:13:17.678Z,0.00
2022-08-07T01:14:16.816Z,0.00
2022-08-07T01:15:16.892Z,0.00
2022-08-07T01:16:16.608Z,0.00
2022-08-07T01:17:18.278Z,0.00
2022-08-07T01:18:17.115Z,0.00
2022-08-07T01:19:18.822Z,0.00
2022-08-07T01:20:17.477Z,0.00
2022-08-07T01:21:17.481Z,0.00
2022-08-07T01:22:22.902Z,0.00
2022-08-07T01:23:17.540Z,0.00
2022-08-07T01:24:21.143Z,0.00
2022-08-07T01:25:54.756Z,0.00
2022-08-07T01:26:17.504Z,0.00
2022-08-07T01:27:32.137Z,0.00
2022-08-07T01:28:17.490Z,0.00
2022-08-07T01:29:16.485Z,0.00
2022-08-07T01:30:16.509Z,0.00
2022-08-07T01:31:17.735Z,0.00
2022-08-07T01:32:16.464Z,0.00
2022-08-07T01:33:16.442Z,0.00
2022-08-07T01:34:17.166Z,0.00
2022-08-07T01:35:17.262Z,0.00
2022-08-07T01:36:16.912Z,0.00
2022-08-07T01:37:16.402Z,0.00
2022-08-07T01:38:25.038Z,0.00
2022-08-07T01:39:17.400Z,0.00
2022-08-07T01:40:16.365Z,0.00
2022-08-07T01:41:26.062Z,0.00
2022-08-07T01:42:40.180Z,0.00
2022-08-07T01:43:17.336Z,0.00
2022-08-07T01:44:16.325Z,0.00
2022-08-07T01:45:18.497Z,0.00
2022-08-07T01:46:17.303Z,0.00
2022-08-07T01:48:19.897Z,0.00
2022-08-07T01:48:20.647Z,0.00
2022-08-07T01:49:17.275Z,0.00
2022-08-07T01:50:17.268Z,0.00
2022-08-07T01:52:02.706Z,0.00
2022-08-07T01:52:17.238Z,0.00
2022-08-07T01:53:20.928Z,0.00
2022-08-07T01:54:22.026Z,0.00
2022-08-07T01:55:22.527Z,0.00
2022-08-07T01:56:17.198Z,0.00
2022-08-07T01:57:30.980Z,0.00
2022-08-07T01:58:27.824Z,0.00
2022-08-07T01:59:17.172Z,0.00
2022-08-07T02:00:16.189Z,0.00
2022-08-07T02:01:58.981Z,0.00
2022-08-07T02:03:12.265Z,0.00
2022-08-07T02:03:21.659Z,0.00
2022-08-07T02:04:17.216Z,0.00
2022-08-07T02:05:43.160Z,0.00
2022-08-07T02:06:30.768Z,0.00
2022-08-07T02:07:17.082Z,0.00
2022-08-07T02:08:16.078Z,0.00
2022-08-07T02:09:33.851Z,0.00
2022-08-07T02:10:17.051Z,0.00
2022-08-07T02:11:31.017Z,0.00
2022-08-07T02:12:17.760Z,0.00
2022-08-07T02:13:16.031Z,0.00
2022-08-07T02:14:35.832Z,0.00
2022-08-07T02:15:17.004Z,0.00
2022-08-07T02:16:16.129Z,0.00
2022-08-07T02:17:25.885Z,0.00
2022-08-07T02:18:17.780Z,0.00
2022-08-07T02:20:07.771Z,0.00
2022-08-07T02:20:19.721Z,0.00
2022-08-07T02:21:16.943Z,0.00
2022-08-07T02:22:18.507Z,0.00
2022-08-07T02:23:15.925Z,0.00
2022-08-07T02:24:17.803Z,0.00
2022-08-07T02:25:18.136Z,0.00
2022-08-07T02:26:33.919Z,0.00
2022-08-07T02:27:16.886Z,0.00
2022-08-07T02:28:24.732Z,0.00
2022-08-07T02:29:16.865Z,0.00
2022-08-07T02:30:16.896Z,0.00
2022-08-07T02:31:18.965Z,0.00
2022-08-07T02:32:16.826Z,0.00
2022-08-07T02:33:17.974Z,0.00
2022-08-07T02:34:17.410Z,0.00
2022-08-07T02:35:15.758Z,1.00
2022-08-07T02:36:30.526Z,1.00
2022-08-07T02:37:16.728Z,1.00
2022-08-07T02:38:15.792Z,1.00
2022-08-07T02:39:16.219Z,2.00
2022-08-07T02:40:30.902Z,2.00
2022-08-07T02:41:21.699Z,1.00
2022-08-07T02:42:16.679Z,1.00
2022-08-07T02:43:15.669Z,2.00
2022-08-07T02:44:15.658Z,2.00
2022-08-07T02:46:01.475Z,3.00
2022-08-07T02:46:16.629Z,3.00
2022-08-07T02:47:19.547Z,4.00
2022-08-07T02:48:15.962Z,5.00
2022-08-07T02:49:29.118Z,6.00
2022-08-07T02:50:16.589Z,7.00
2022-08-07T02:51:42.921Z,6.00
2022-08-07T02:52:16.601Z,7.00
2022-08-07T02:53:16.562Z,8.00
2022-08-07T02:54:15.551Z,9.00
2022-08-07T02:55:27.626Z,10.00
2022-08-07T02:56:21.014Z,10.00
2022-08-07T02:57:16.512Z,12.00
2022-08-07T02:58:15.554Z,12.00
2022-08-07T02:59:15.503Z,13.00
2022-08-07T03:00:15.493Z,14.00
2022-08-07T03:01:18.699Z,15.00
2022-08-07T03:02:16.524Z,16.00
2022-08-07T03:03:20.976Z,17.00
2022-08-07T03:04:16.495Z,18.00
2022-08-07T03:05:20.673Z,19.00
2022-08-07T03:06:26.193Z,20.00
2022-08-07T03:07:16.416Z,20.00
2022-08-07T03:08:16.417Z,21.00
2022-08-07T03:09:15.407Z,22.00
2022-08-07T03:10:16.417Z,22.00
2022-08-07T03:11:15.377Z,22.00
2022-08-07T03:12:22.048Z,23.00
2022-08-07T03:13:19.660Z,23.00
2022-08-07T03:14:15.348Z,24.00
2022-08-07T03:15:15.337Z,25.00
2022-08-07T03:16:16.368Z,25.00
2022-08-07T03:17:15.318Z,25.00
2022-08-07T03:18:20.043Z,26.00
2022-08-07T03:19:15.299Z,26.00
2022-08-07T03:20:15.288Z,28.00
2022-08-07T03:21:18.929Z,28.00
2022-08-07T03:22:18.568Z,30.00
2022-08-07T03:23:19.381Z,30.00
2022-08-07T03:24:19.559Z,32.00
2022-08-07T03:25:16.238Z,33.00
2022-08-07T03:26:16.232Z,34.00
2022-08-07T03:27:29.889Z,36.00
2022-08-07T03:28:37.691Z,37.00
2022-08-07T03:29:16.201Z,39.00
2022-08-07T03:30:15.194Z,40.00
2022-08-07T03:31:15.170Z,43.00
2022-08-07T03:32:15.163Z,44.00
2022-08-07T03:33:15.191Z,46.00
2022-08-07T03:34:18.548Z,49.00
2022-08-07T03:35:17.886Z,52.00
2022-08-07T03:36:15.133Z,54.00
2022-08-07T03:37:15.113Z,56.00
2022-08-07T03:38:15.103Z,58.00
2022-08-07T03:39:15.209Z,58.00
2022-08-07T03:40:16.609Z,60.00
2022-08-07T03:41:15.063Z,61.00
2022-08-07T03:42:15.070Z,61.00
2022-08-07T03:43:15.053Z,64.00
2022-08-07T03:44:15.352Z,66.00
2022-08-07T03:45:29.824Z,67.00
2022-08-07T03:46:18.487Z,70.00
2022-08-07T03:47:15.017Z,72.00
2022-08-07T03:48:15.005Z,74.00
2022-08-07T03:49:14.992Z,77.00
2022-08-07T03:50:14.985Z,77.00
2022-08-07T03:51:15.016Z,79.00
2022-08-07T03:52:22.878Z,81.00
2022-08-07T03:53:15.947Z,82.00
2022-08-07T03:54:35.623Z,84.00
2022-08-07T03:55:15.939Z,84.00
2022-08-07T03:56:14.927Z,85.00
2022-08-07T03:58:33.238Z,87.00
2022-08-07T03:59:06.689Z,91.00
2022-08-07T03:59:16.237Z,95.00
2022-08-07T04:00:15.001Z,98.00
2022-08-07T04:01:14.897Z,100.00
2022-08-07T04:02:14.859Z,106.00
2022-08-07T04:03:14.879Z,115.00
2022-08-07T04:04:17.187Z,119.00
2022-08-07T04:05:14.829Z,119.00
2022-08-07T04:06:37.679Z,117.00
2022-08-07T04:07:17.342Z,117.00
2022-08-07T04:08:16.211Z,120.00
2022-08-07T04:09:15.473Z,116.00
2022-08-07T04:10:15.681Z,106.00
2022-08-07T04:12:24.113Z,107.00
2022-08-07T04:12:25.746Z,104.00
2022-08-07T04:13:15.741Z,114.00
2022-08-07T04:14:38.520Z,122.00
2022-08-07T04:15:15.761Z,133.00
2022-08-07T04:16:14.711Z,142.00
2022-08-07T04:17:20.417Z,150.00
2022-08-07T04:18:57.368Z,157.00
2022-08-07T04:19:16.008Z,163.00
2022-08-07T04:20:14.676Z,169.00
2022-08-07T04:21:14.705Z,180.00
2022-08-07T04:22:17.633Z,187.00
2022-08-07T04:23:19.461Z,185.00
2022-08-07T04:24:30.683Z,185.00
2022-08-07T04:25:15.632Z,190.00
2022-08-07T04:26:14.617Z,191.00
2022-08-07T04:27:15.243Z,191.00
2022-08-07T04:28:15.594Z,195.00
2022-08-07T04:29:15.588Z,198.00
2022-08-07T04:30:21.709Z,204.00
2022-08-07T04:31:20.268Z,210.00
2022-08-07T04:32:15.632Z,221.00
2022-08-07T04:33:15.638Z,234.00
2022-08-07T04:34:17.107Z,240.00
2022-08-07T04:35:15.529Z,242.00
2022-08-07T04:36:14.557Z,247.00
2022-08-07T04:37:15.225Z,244.00
2022-08-07T04:38:15.527Z,236.00
2022-08-07T04:39:14.532Z,234.00
2022-08-07T04:40:14.474Z,233.00
2022-08-07T04:41:19.109Z,226.00
2022-08-07T04:42:15.457Z,223.00
2022-08-07T04:43:14.441Z,227.00
2022-08-07T04:44:18.820Z,234.00
2022-08-07T04:45:14.472Z,236.00
2022-08-07T04:46:20.180Z,238.00
2022-08-07T04:47:56.919Z,241.00
2022-08-07T04:48:15.637Z,241.00
2022-08-07T04:49:17.900Z,243.00
2022-08-07T04:50:15.411Z,252.00
2022-08-07T04:51:14.361Z,273.00
2022-08-07T04:52:14.371Z,286.00
2022-08-07T04:53:16.542Z,277.00
2022-08-07T04:54:15.332Z,281.00
2022-08-07T04:55:15.309Z,302.00
2022-08-07T04:58:11.626Z,275.00
2022-08-07T04:58:12.970Z,298.00
2022-08-07T04:58:33.602Z,259.00
2022-08-07T05:00:11.066Z,245.00
2022-08-07T05:00:17.340Z,238.00
2022-08-07T05:01:18.008Z,242.00
2022-08-07T05:02:16.972Z,233.00
2022-08-07T05:03:16.702Z,242.00
2022-08-07T05:04:17.267Z,259.00
2022-08-07T05:05:53.206Z,266.00
2022-08-07T05:06:19.329Z,273.00
2022-08-07T05:07:20.729Z,277.00
2022-08-07T05:08:15.184Z,275.00
2022-08-07T05:09:14.167Z,262.00
2022-08-07T05:10:14.157Z,249.00
2022-08-07T05:11:19.111Z,246.00
2022-08-07T05:12:15.814Z,267.00
2022-08-07T05:14:55.447Z,280.00
2022-08-07T05:14:56.077Z,305.00
2022-08-07T05:15:23.280Z,328.00
2022-08-07T05:16:15.125Z,264.00
2022-08-07T05:17:14.087Z,271.00
2022-08-07T05:18:15.108Z,278.00
2022-08-07T05:19:14.118Z,274.00
2022-08-07T05:20:14.057Z,248.00
2022-08-07T05:21:14.705Z,264.00
2022-08-07T05:22:26.615Z,298.00
2022-08-07T05:23:15.690Z,277.00
2022-08-07T05:24:14.030Z,252.00
2022-08-07T05:25:25.936Z,251.00
2022-08-07T05:26:23.569Z,279.00
2022-08-07T05:28:02.025Z,352.00
2022-08-07T05:28:20.874Z,394.00
2022-08-07T05:29:15.015Z,359.00
2022-08-07T05:30:13.966Z,319.00
2022-08-07T05:31:14.973Z,273.00
2022-08-07T05:32:13.952Z,270.00
2022-08-07T05:33:13.946Z,271.00
2022-08-07T05:34:15.679Z,273.00
2022-08-07T05:35:13.894Z,273.00
2022-08-07T05:36:22.568Z,269.00
2022-08-07T05:37:14.923Z,264.00
2022-08-07T05:38:58.236Z,259.00
2022-08-07T05:40:05.547Z,253.00
2022-08-07T05:40:18.938Z,249.00
2022-08-07T05:41:16.663Z,247.00
2022-08-07T05:42:13.848Z,247.00
2022-08-07T05:43:13.847Z,248.00
2022-08-07T05:44:13.811Z,250.00
2022-08-07T05:45:26.008Z,253.00
2022-08-07T05:46:14.798Z,257.00
2022-08-07T05:47:18.217Z,260.00
2022-08-07T05:48:14.796Z,261.00
2022-08-07T05:49:14.404Z,260.00
2022-08-07T05:50:13.745Z,259.00
2022-08-07T05:51:13.728Z,258.00
2022-08-07T05:52:14.399Z,258.00
2022-08-07T05:54:09.581Z,260.00
2022-08-07T05:54:31.026Z,261.00
2022-08-07T05:55:14.859Z,263.00
2022-08-07T05:56:13.680Z,264.00
2022-08-07T05:57:13.671Z,268.00
2022-08-07T05:58:13.670Z,271.00
2022-08-07T05:59:13.652Z,274.00
2022-08-07T06:00:16.443Z,277.00
2022-08-07T06:01:13.630Z,277.00
2022-08-07T06:02:13.691Z,280.00
2022-08-07T06:03:14.602Z,284.00
2022-08-07T06:04:14.283Z,290.00
2022-08-07T06:05:15.492Z,291.00
2022-08-07T06:06:18.928Z,288.00
2022-08-07T06:07:22.701Z,288.00
2022-08-07T06:08:30.865Z,287.00
2022-08-07T06:09:14.562Z,288.00
2022-08-07T06:10:15.293Z,293.00
2022-08-07T06:11:13.534Z,302.00
2022-08-07T06:12:15.391Z,320.00
2022-08-07T06:13:15.491Z,344.00
2022-08-07T06:14:21.184Z,363.00
2022-08-07T06:15:15.219Z,393.00
2022-08-07T06:16:13.674Z,427.00
2022-08-07T06:17:13.467Z,436.00
2022-08-07T06:18:13.819Z,419.00
2022-08-07T06:19:17.958Z,396.00
2022-08-07T06:20:32.109Z,393.00
2022-08-07T06:22:17.021Z,391.00
2022-08-07T06:22:23.058Z,389.00
2022-08-07T06:23:46.570Z,387.00
2022-08-07T06:24:37.478Z,387.00
2022-08-07T06:25:14.401Z,395.00
2022-08-07T06:26:13.382Z,409.00
2022-08-07T06:27:13.368Z,400.00
2022-08-07T06:28:14.937Z,404.00
2022-08-07T06:29:13.393Z,400.00
2022-08-07T06:30:24.170Z,399.00
2022-08-07T06:31:14.344Z,405.00
2022-08-07T06:32:13.491Z,401.00
2022-08-07T06:33:16.125Z,401.00
2022-08-07T06:34:13.387Z,403.00
2022-08-07T06:35:18.056Z,403.00
2022-08-07T06:36:14.247Z,404.00
2022-08-07T06:37:17.272Z,414.00
2022-08-07T06:38:20.037Z,426.00
2022-08-07T06:40:16.669Z,426.00
2022-08-07T06:40:20.483Z,428.00
2022-08-07T06:41:14.243Z,441.00
2022-08-07T06:42:13.295Z,455.00
2022-08-07T06:43:21.592Z,467.00
2022-08-07T06:44:14.187Z,479.00
2022-08-07T06:45:13.178Z,497.00
2022-08-07T06:46:14.201Z,514.00
2022-08-07T06:47:15.486Z,528.00
2022-08-07T06:48:13.155Z,542.00
2022-08-07T06:49:13.138Z,536.00
2022-08-07T06:50:13.120Z,524.00
2022-08-07T06:51:13.121Z,520.00
2022-08-07T06:52:13.153Z,525.00
2022-08-07T06:53:18.554Z,509.00
2022-08-07T06:55:31.763Z,501.00
2022-08-07T06:55:33.672Z,497.00
2022-08-07T06:56:15.326Z,490.00
2022-08-07T06:57:13.059Z,487.00
2022-08-07T06:58:13.081Z,500.00
2022-08-07T07:00:11.912Z,508.00
2022-08-07T07:00:17.839Z,506.00
2022-08-07T07:01:14.151Z,512.00
2022-08-07T07:02:13.104Z,522.00
2022-08-07T07:03:17.099Z,532.00
2022-08-07T07:04:32.220Z,548.00
2022-08-07T07:05:13.964Z,554.00
2022-08-07T07:06:13.963Z,566.00
2022-08-07T07:07:19.360Z,587.00
2022-08-07T07:08:18.475Z,591.00
2022-08-07T07:09:13.974Z,574.00
2022-08-07T07:10:12.917Z,564.00
2022-08-07T07:11:13.465Z,566.00
2022-08-07T07:12:15.535Z,590.00
2022-08-07T07:13:13.935Z,618.00
2022-08-07T07:14:13.956Z,644.00
2022-08-07T07:15:24.161Z,682.00
2022-08-07T07:16:13.855Z,738.00
2022-08-07T07:17:16.206Z,748.00
2022-08-07T07:18:12.848Z,737.00
2022-08-07T07:19:55.341Z,754.00
2022-08-07T07:20:13.877Z,769.00
2022-08-07T07:21:13.699Z,781.00
2022-08-07T07:22:34.424Z,796.00
2022-08-07T07:24:08.316Z,809.00
2022-08-07T07:24:13.778Z,815.00
2022-08-07T07:26:30.601Z,780.00
2022-08-07T07:26:35.719Z,717.00
2022-08-07T07:27:13.743Z,647.00
2022-08-07T07:28:29.896Z,603.00
2022-08-07T07:29:39.078Z,578.00
2022-08-07T07:30:13.712Z,562.00
2022-08-07T07:31:17.300Z,557.00
2022-08-07T07:32:14.071Z,553.00
2022-08-07T07:33:13.531Z,544.00
2022-08-07T07:34:12.675Z,555.00
2022-08-07T07:35:12.666Z,581.00
2022-08-07T07:36:13.545Z,600.00
2022-08-07T07:37:21.739Z,625.00
2022-08-07T07:38:13.666Z,670.00
2022-08-07T07:39:12.638Z,713.00
2022-08-07T07:40:14.728Z,719.00
2022-08-07T07:41:12.607Z,726.00
2022-08-07T07:42:13.225Z,739.00
2022-08-07T07:43:18.591Z,759.00
2022-08-07T07:44:18.069Z,829.00
2022-08-07T07:45:13.567Z,871.00
2022-08-07T07:46:53.285Z,882.00
2022-08-07T07:47:14.279Z,873.00
2022-08-07T07:48:34.889Z,900.00
2022-08-07T07:50:33.518Z,706.00
2022-08-07T07:50:34.443Z,834.00
2022-08-07T07:51:15.526Z,584.00
2022-08-07T07:52:13.480Z,569.00
2022-08-07T07:53:20.712Z,600.00
2022-08-07T07:54:13.472Z,642.00
2022-08-07T07:55:12.462Z,685.00
2022-08-07T07:56:12.482Z,741.00
2022-08-07T07:57:12.441Z,816.00
2022-08-07T07:58:12.431Z,869.00
2022-08-07T07:59:13.093Z,863.00
2022-08-07T08:00:12.404Z,818.00
2022-08-07T08:02:01.701Z,807.00
2022-08-07T08:02:22.581Z,878.00
2022-08-07T08:03:16.609Z,969.00
2022-08-07T08:04:13.366Z,1022.00
2022-08-07T08:05:15.000Z,1045.00
2022-08-07T08:06:13.084Z,1107.00
2022-08-07T08:07:12.373Z,1136.00
2022-08-07T08:08:34.528Z,1080.00
2022-08-07T08:09:13.569Z,1082.00
2022-08-07T08:10:14.894Z,1080.00
2022-08-07T08:11:16.290Z,1031.00
2022-08-07T08:12:22.586Z,1002.00
2022-08-07T08:13:15.435Z,958.00
2022-08-07T08:14:12.258Z,931.00
2022-08-07T08:15:12.266Z,926.00
2022-08-07T08:16:12.667Z,943.00
2022-08-07T08:18:17.616Z,983.00
2022-08-07T08:18:36.995Z,962.00
2022-08-07T08:19:17.691Z,958.00
2022-08-07T08:20:17.643Z,951.00
2022-08-07T08:21:13.193Z,973.00
2022-08-07T08:22:12.172Z,994.00
2022-08-07T08:23:12.182Z,1023.00
2022-08-07T08:24:34.358Z,1046.00
2022-08-07T08:25:25.046Z,1036.00
2022-08-07T08:26:13.134Z,985.00
2022-08-07T08:27:12.126Z,951.00
2022-08-07T08:28:12.795Z,906.00
2022-08-07T08:29:12.106Z,895.00
2022-08-07T08:30:14.316Z,908.00
2022-08-07T08:31:15.807Z,929.00
2022-08-07T08:32:18.892Z,935.00
2022-08-07T08:33:16.052Z,899.00
2022-08-07T08:34:12.391Z,932.00
2022-08-07T08:35:13.095Z,1014.00
2022-08-07T08:36:12.037Z,981.00
2022-08-07T08:37:59.312Z,958.00
2022-08-07T08:38:13.010Z,962.00
2022-08-07T08:39:12.037Z,961.00
2022-08-07T08:40:16.196Z,920.00
2022-08-07T08:41:12.031Z,907.00
2022-08-07T08:42:11.989Z,931.00
2022-08-07T08:43:11.960Z,951.00
2022-08-07T08:44:11.952Z,921.00
2022-08-07T08:45:13.379Z,927.00
2022-08-07T08:46:11.932Z,980.00
2022-08-07T08:47:11.973Z,1000.00
2022-08-07T08:48:12.911Z,947.00
2022-08-07T08:49:12.521Z,925.00
2022-08-07T08:50:15.122Z,985.00
2022-08-07T08:51:14.337Z,1019.00
2022-08-07T08:52:16.471Z,1019.00
2022-08-07T08:53:11.868Z,1081.00
2022-08-07T08:54:11.852Z,1142.00
2022-08-07T08:55:21.299Z,1089.00
2022-08-07T08:56:12.827Z,1041.00
2022-08-07T08:57:11.817Z,1012.00
2022-08-07T08:58:13.337Z,919.00
2022-08-07T08:59:13.919Z,894.00
2022-08-07T09:00:11.790Z,831.00
2022-08-07T09:01:15.799Z,735.00
2022-08-07T09:02:13.275Z,769.00
2022-08-07T09:03:11.758Z,841.00
2022-08-07T09:04:13.525Z,868.00
2022-08-07T09:05:11.731Z,815.00
2022-08-07T09:06:11.721Z,826.00
2022-08-07T09:07:11.713Z,844.00
2022-08-07T09:08:11.701Z,903.00
2022-08-07T09:09:20.589Z,955.00
2022-08-07T09:10:12.671Z,975.00
2022-08-07T09:11:11.679Z,983.00
2022-08-07T09:12:30.401Z,989.00
2022-08-07T09:13:14.871Z,952.00
2022-08-07T09:14:11.647Z,873.00
2022-08-07T09:16:22.085Z,884.00
2022-08-07T09:16:25.454Z,869.00
2022-08-07T09:17:12.606Z,898.00
2022-08-07T09:18:15.698Z,871.00
2022-08-07T09:19:50.747Z,873.00
2022-08-07T09:20:34.925Z,891.00
2022-08-07T09:21:13.965Z,923.00
2022-08-07T09:24:29.309Z,980.00
2022-08-07T09:24:32.970Z,1012.00
2022-08-07T09:24:53.917Z,1026.00
2022-08-07T09:25:14.631Z,1018.00
2022-08-07T09:26:12.560Z,956.00
2022-08-07T09:27:13.365Z,954.00
2022-08-07T09:30:00.661Z,1034.00
2022-08-07T09:30:01.360Z,992.00
2022-08-07T09:30:12.485Z,1062.00
2022-08-07T09:31:11.470Z,1130.00
2022-08-07T09:32:18.591Z,1237.00
2022-08-07T09:33:16.700Z,1210.00
2022-08-07T09:34:12.442Z,1194.00
2022-08-07T09:36:04.929Z,1226.00
2022-08-07T09:36:12.403Z,1258.00
2022-08-07T09:37:11.404Z,1291.00
2022-08-07T09:38:11.434Z,1382.00
2022-08-07T09:39:52.752Z,1419.00
2022-08-07T09:40:12.421Z,1336.00
2022-08-07T09:41:12.372Z,1322.00
2022-08-07T09:42:17.251Z,1302.00
2022-08-07T09:43:12.387Z,1241.00
2022-08-07T09:44:19.387Z,1237.00
2022-08-07T09:47:49.843Z,1090.00
2022-08-07T09:47:51.541Z,1171.00
2022-08-07T09:47:52.126Z,978.00
2022-08-07T09:48:14.617Z,905.00
2022-08-07T09:50:00.802Z,1068.00
2022-08-07T09:50:18.434Z,1081.00
2022-08-07T09:51:26.122Z,1061.00
2022-08-07T09:52:33.242Z,988.00
2022-08-07T09:53:12.557Z,979.00
2022-08-07T09:54:11.648Z,1018.00
2022-08-07T09:55:28.860Z,1017.00
2022-08-07T09:56:12.253Z,980.00
2022-08-07T09:57:12.966Z,913.00
2022-08-07T09:58:11.570Z,884.00
2022-08-07T09:59:14.030Z,881.00
2022-08-07T10:00:14.769Z,861.00
2022-08-07T10:01:14.891Z,792.00
2022-08-07T10:02:12.144Z,798.00
2022-08-07T10:04:05.292Z,846.00
2022-08-07T10:04:14.031Z,904.00
2022-08-07T10:05:12.965Z,882.00
2022-08-07T10:06:12.024Z,858.00
2022-08-07T10:07:24.534Z,543.00
2022-08-07T10:08:12.086Z,647.00
2022-08-07T10:09:11.077Z,818.00
2022-08-07T10:10:11.906Z,839.00
2022-08-07T10:11:16.764Z,919.00
2022-08-07T10:12:19.614Z,963.00
2022-08-07T10:13:29.666Z,968.00
2022-08-07T10:14:12.027Z,964.00
2022-08-07T10:15:15.375Z,1083.00
2022-08-07T10:16:12.001Z,1285.00
2022-08-07T10:17:14.479Z,1437.00
2022-08-07T10:18:12.027Z,1471.00
2022-08-07T10:19:11.520Z,1486.00
2022-08-07T10:20:13.018Z,1474.00
2022-08-07T10:21:19.833Z,1393.00
2022-08-07T10:22:17.032Z,1539.00
2022-08-07T10:23:11.932Z,1490.00
2022-08-07T10:24:10.965Z,1428.00
2022-08-07T10:25:11.923Z,1380.00
2022-08-07T10:26:10.905Z,1459.00
2022-08-07T10:27:10.897Z,1561.00
2022-08-07T10:28:12.594Z,1580.00
2022-08-07T10:29:10.875Z,1532.00
2022-08-07T10:30:12.166Z,1365.00
2022-08-07T10:31:11.025Z,1245.00
2022-08-07T10:32:16.508Z,1054.00
2022-08-07T10:33:14.787Z,1038.00
2022-08-07T10:34:15.089Z,1085.00
2022-08-07T10:35:14.966Z,1108.00
2022-08-07T10:36:12.720Z,1098.00
2022-08-07T10:37:12.520Z,1093.00
2022-08-07T10:38:34.945Z,1094.00
2022-08-07T10:39:11.828Z,1135.00
2022-08-07T10:40:10.800Z,1371.00
2022-08-07T10:41:10.792Z,1596.00
2022-08-07T10:42:21.234Z,1552.00
2022-08-07T10:43:11.736Z,1450.00
2022-08-07T10:44:10.711Z,1333.00
2022-08-07T10:45:10.701Z,1465.00
2022-08-07T10:46:10.692Z,1609.00
2022-08-07T10:47:11.782Z,1580.00
2022-08-07T10:48:10.674Z,1525.00
2022-08-07T10:49:10.663Z,1383.00
2022-08-07T10:50:10.655Z,1380.00
2022-08-07T10:51:16.405Z,1314.00
2022-08-07T10:52:13.509Z,1241.00
2022-08-07T10:53:10.626Z,1150.00
2022-08-07T10:54:10.607Z,1103.00
2022-08-07T10:55:26.760Z,1118.00
2022-08-07T10:56:21.016Z,1113.00
2022-08-07T10:57:11.576Z,1175.00
2022-08-07T10:58:10.605Z,1220.00
2022-08-07T10:59:10.570Z,1216.00
2022-08-07T11:00:36.400Z,1355.00
2022-08-07T11:01:15.031Z,1471.00
2022-08-07T11:02:12.396Z,1302.00
2022-08-07T11:03:12.748Z,1210.00
2022-08-07T11:04:11.035Z,1177.00
2022-08-07T11:05:11.502Z,1156.00
2022-08-07T11:06:10.491Z,1214.00
2022-08-07T11:07:15.108Z,1308.00
2022-08-07T11:08:11.848Z,1263.00
2022-08-07T11:09:11.683Z,1260.00
2022-08-07T11:10:11.485Z,1260.00
2022-08-07T11:11:10.443Z,1260.00
2022-08-07T11:12:10.425Z,1359.00
2022-08-07T11:13:42.485Z,1293.00
2022-08-07T11:14:45.763Z,1177.00
2022-08-07T11:15:17.352Z,1242.00
2022-08-07T11:16:11.377Z,1237.00
2022-08-07T11:17:10.380Z,1234.00
2022-08-07T11:18:10.369Z,1242.00
2022-08-07T11:19:10.358Z,1092.00
2022-08-07T11:20:10.337Z,1042.00
2022-08-07T11:21:10.379Z,1042.00
2022-08-07T11:22:18.762Z,1034.00
2022-08-07T11:23:11.320Z,1009.00
2022-08-07T11:24:11.300Z,1081.00
2022-08-07T11:25:10.289Z,1307.00
2022-08-07T11:26:11.197Z,1344.00
2022-08-07T11:27:13.570Z,1274.00
2022-08-07T11:28:15.370Z,1304.00
2022-08-07T11:29:13.184Z,1218.00
2022-08-07T11:30:18.452Z,1004.00
2022-08-07T11:31:11.577Z,1076.00
2022-08-07T11:32:10.224Z,1200.00
2022-08-07T11:33:14.975Z,1343.00
2022-08-07T11:34:10.922Z,1396.00
2022-08-07T11:35:10.191Z,1405.00
2022-08-07T11:36:10.192Z,1349.00
2022-08-07T11:37:11.793Z,1442.00
2022-08-07T11:38:17.177Z,1500.00
2022-08-07T11:39:14.624Z,1377.00
2022-08-07T11:40:11.293Z,1285.00
2022-08-07T11:41:18.040Z,1423.00
2022-08-07T11:42:18.726Z,1502.00
2022-08-07T11:43:11.108Z,1462.00
2022-08-07T11:44:12.060Z,1465.00
2022-08-07T11:45:10.129Z,1450.00
2022-08-07T11:46:10.078Z,1437.00
2022-08-07T11:47:10.114Z,1313.00
2022-08-07T11:48:18.219Z,1180.00
2022-08-07T11:49:27.807Z,1180.00
2022-08-07T11:50:31.653Z,1224.00
2022-08-07T11:51:11.033Z,1340.00
2022-08-07T11:52:11.020Z,1321.00
2022-08-07T11:53:10.013Z,1323.00
2022-08-07T11:54:10.351Z,1414.00
2022-08-07T11:55:12.904Z,1465.00
2022-08-07T11:56:27.327Z,1476.00
2022-08-07T11:57:12.840Z,1482.00
2022-08-07T11:58:13.222Z,1507.00
2022-08-07T12:00:08.207Z,1512.00
2022-08-07T12:00:19.223Z,1515.00
2022-08-07T12:01:10.926Z,1518.00
2022-08-07T12:02:20.549Z,1516.00
2022-08-07T12:03:45.218Z,3636.00
2022-08-07T12:04:10.917Z,1482.00
2022-08-07T12:05:15.191Z,1489.00
2022-08-07T12:06:37.740Z,1498.00
2022-08-07T12:07:20.332Z,1493.00
2022-08-07T12:08:25.407Z,1503.00
2022-08-07T12:09:16.094Z,1498.00
2022-08-07T12:10:12.439Z,1485.00
2022-08-07T12:11:21.189Z,1463.00
2022-08-07T12:12:12.045Z,1437.00
2022-08-07T12:13:11.656Z,1430.00
2022-08-07T12:14:10.840Z,1449.00
2022-08-07T12:15:17.260Z,1487.00
2022-08-07T12:16:10.782Z,1471.00
2022-08-07T12:17:09.769Z,1432.00
2022-08-07T12:18:11.228Z,1368.00
2022-08-07T12:19:09.744Z,1327.00
2022-08-07T12:20:20.043Z,1305.00
2022-08-07T12:21:10.725Z,1367.00
2022-08-07T12:22:39.045Z,1384.00
2022-08-07T12:23:10.697Z,1323.00
2022-08-07T12:24:37.834Z,1376.00
2022-08-07T12:25:10.676Z,1380.00
2022-08-07T12:26:29.086Z,1330.00
2022-08-07T12:27:15.803Z,1268.00
2022-08-07T12:28:11.189Z,1243.00
2022-08-07T12:29:09.637Z,1267.00
2022-08-07T12:30:09.630Z,1342.00
2022-08-07T12:31:09.611Z,1405.00
2022-08-07T12:32:13.054Z,1332.00
2022-08-07T12:33:23.158Z,1167.00
2022-08-07T12:34:11.140Z,1179.00
2022-08-07T12:35:09.570Z,3023.00